createdAt,value
2022-10-25T00:01:20.052Z,75.18
2022-10-25T00:03:47.241Z,75.11
2022-10-25T00:06:14.820Z,75.15
2022-10-25T00:08:42.159Z,75.09
2022-10-25T00:11:16.266Z,75.09
2022-10-25T00:13:43.287Z,75.19
2022-10-25T00:16:15.067Z,75.16
2022-10-25T00:18:42.297Z,75.19
2022-10-25T00:21:09.402Z,75.11
2022-10-25T00:23:36.502Z,75.08
2022-10-25T00:26:08.526Z,75.30
2022-10-25T00:28:36.049Z,75.07
2022-10-25T00:31:14.096Z,75.10
2022-10-25T00:33:43.834Z,75.25
2022-10-25T00:36:16.478Z,75.28
2022-10-25T00:38:45.027Z,75.13
2022-10-25T00:41:18.715Z,75.17
2022-10-25T00:43:48.591Z,75.24
2022-10-25T00:46:21.627Z,75.34
2022-10-25T00:49:10.762Z,75.12
2022-10-25T00:51:43.403Z,75.33
2022-10-25T00:54:13.761Z,75.21
2022-10-25T00:56:44.202Z,75.16
2022-10-25T00:59:15.237Z,75.14
2022-10-25T01:01:43.082Z,75.11
2022-10-25T01:04:15.534Z,75.21
2022-10-25T01:06:46.931Z,75.09
2022-10-25T01:09:19.945Z,75.31
2022-10-25T01:11:47.531Z,75.19
2022-10-25T01:14:16.776Z,75.30
2022-10-25T01:17:07.105Z,75.10
2022-10-25T01:19:46.342Z,75.00
2022-10-25T01:22:46.412Z,75.10
2022-10-25T01:25:40.722Z,75.17
2022-10-25T01:28:33.609Z,75.12
2022-10-25T01:31:31.879Z,75.18
2022-10-25T01:34:10.239Z,75.05
2022-10-25T01:36:53.576Z,75.20
2022-10-25T01:39:29.582Z,75.11
2022-10-25T01:42:13.089Z,75.12
2022-10-25T01:44:54.382Z,75.12
2022-10-25T01:47:25.901Z,75.16
2022-10-25T01:50:01.030Z,75.19
2022-10-25T01:52:28.622Z,75.11
2022-10-25T01:54:55.675Z,75.08
2022-10-25T01:57:31.902Z,75.27
2022-10-25T02:00:17.982Z,75.07
2022-10-25T02:02:59.286Z,75.13
2022-10-25T02:05:44.870Z,75.10
2022-10-25T02:08:30.253Z,75.18
2022-10-25T02:11:26.638Z,75.05
2022-10-25T02:14:02.477Z,75.06
2022-10-25T02:16:39.901Z,75.07
2022-10-25T02:19:10.846Z,75.22
2022-10-25T02:21:38.215Z,75.19
2022-10-25T02:24:12.304Z,75.13
2022-10-25T02:26:42.275Z,75.15
2022-10-25T02:29:11.870Z,74.93
2022-10-25T02:31:39.138Z,75.00
2022-10-25T02:34:06.725Z,74.99
2022-10-25T02:36:33.751Z,75.18
2022-10-25T02:39:01.109Z,75.06
2022-10-25T02:41:28.950Z,74.96
2022-10-25T02:43:56.013Z,75.09
2022-10-25T02:46:24.162Z,75.05
2022-10-25T02:48:51.349Z,74.92
2022-10-25T02:51:18.324Z,74.91
2022-10-25T02:53:45.387Z,75.09
2022-10-25T02:56:16.300Z,74.98
2022-10-25T02:58:44.758Z,74.94
2022-10-25T03:01:13.478Z,74.99
2022-10-25T03:03:40.955Z,74.96
2022-10-25T03:06:09.180Z,74.93
2022-10-25T03:08:36.767Z,74.86
2022-10-25T03:11:04.712Z,74.83
2022-10-25T03:13:32.160Z,74.92
2022-10-25T03:15:59.476Z,74.94
2022-10-25T03:18:26.504Z,74.94
2022-10-25T03:21:00.578Z,74.93
2022-10-25T03:23:29.078Z,75.00
2022-10-25T03:25:58.052Z,74.97
2022-10-25T03:28:27.560Z,75.09
2022-10-25T03:30:56.219Z,74.96
2022-10-25T03:33:24.106Z,75.08
2022-10-25T03:35:52.550Z,74.96
2022-10-25T03:38:19.907Z,75.03
2022-10-25T03:40:47.136Z,74.91
2022-10-25T03:43:14.294Z,75.02
2022-10-25T03:45:41.382Z,75.10
2022-10-25T03:48:08.637Z,74.95
2022-10-25T03:50:36.391Z,75.05
2022-10-25T03:53:04.672Z,74.92
2022-10-25T03:55:32.340Z,74.86
2022-10-25T03:57:59.407Z,75.00
2022-10-25T04:00:27.143Z,74.89
2022-10-25T04:03:00.877Z,74.96
2022-10-25T04:05:30.842Z,74.92
2022-10-25T04:07:58.326Z,75.04
2022-10-25T04:10:26.275Z,74.81
2022-10-25T04:12:54.646Z,74.93
2022-10-25T04:15:23.075Z,74.91
2022-10-25T04:17:51.711Z,74.83
2022-10-25T04:20:19.720Z,74.80
2022-10-25T04:22:53.390Z,74.89
2022-10-25T04:25:20.757Z,74.81
2022-10-25T04:27:48.037Z,74.74
2022-10-25T04:30:15.422Z,74.58
2022-10-25T04:32:42.678Z,74.82
2022-10-25T04:35:10.187Z,74.86
2022-10-25T04:37:37.238Z,74.76
2022-10-25T04:40:05.153Z,74.96
2022-10-25T04:42:35.764Z,74.78
2022-10-25T04:45:02.986Z,74.87
2022-10-25T04:47:33.853Z,74.87
2022-10-25T04:50:01.029Z,74.95
2022-10-25T04:52:31.967Z,74.86
2022-10-25T04:54:59.238Z,74.79
2022-10-25T04:57:26.502Z,74.80
2022-10-25T04:59:53.775Z,74.95
2022-10-25T05:02:20.903Z,74.92
2022-10-25T05:04:47.941Z,74.74
2022-10-25T05:07:17.997Z,74.78
2022-10-25T05:09:47.406Z,74.94
2022-10-25T05:12:15.344Z,74.83
2022-10-25T05:14:42.481Z,74.90
2022-10-25T05:17:09.744Z,74.92
2022-10-25T05:19:36.772Z,74.95
2022-10-25T05:22:03.815Z,74.91
2022-10-25T05:24:30.877Z,74.88
2022-10-25T05:26:57.964Z,75.09
2022-10-25T05:29:25.044Z,75.13
2022-10-25T05:31:52.142Z,75.17
2022-10-25T05:34:19.163Z,75.12
2022-10-25T05:36:46.315Z,75.02
2022-10-25T05:39:13.521Z,75.01
2022-10-25T05:41:40.572Z,75.09
2022-10-25T05:44:08.177Z,75.06
2022-10-25T05:46:35.401Z,75.16
2022-10-25T05:49:03.382Z,74.98
2022-10-25T05:51:36.626Z,75.00
2022-10-25T05:54:09.848Z,75.25
2022-10-25T05:56:37.959Z,74.99
2022-10-25T05:59:10.144Z,75.16
2022-10-25T06:01:39.543Z,75.11
2022-10-25T06:04:07.514Z,75.10
2022-10-25T06:06:35.285Z,74.97
2022-10-25T06:09:02.769Z,75.11
2022-10-25T06:11:30.603Z,75.10
2022-10-25T06:13:57.682Z,75.06
2022-10-25T06:16:24.825Z,75.12
2022-10-25T06:18:52.907Z,75.27
2022-10-25T06:21:23.237Z,75.15
2022-10-25T06:23:51.073Z,75.19
2022-10-25T06:26:23.949Z,75.21
2022-10-25T06:28:56.144Z,75.17
2022-10-25T06:31:24.068Z,75.24
2022-10-25T06:33:51.225Z,75.28
2022-10-25T06:36:20.879Z,75.29
2022-10-25T06:38:48.886Z,75.30
2022-10-25T06:41:20.935Z,75.35
2022-10-25T06:43:48.680Z,75.43
2022-10-25T06:46:26.897Z,75.41
2022-10-25T06:48:55.633Z,75.40
2022-10-25T06:51:24.138Z,75.40
2022-10-25T06:53:55.369Z,75.36
2022-10-25T06:56:23.090Z,75.38
2022-10-25T06:58:50.401Z,75.32
2022-10-25T07:01:19.569Z,75.33
2022-10-25T07:03:47.378Z,75.43
2022-10-25T07:06:16.531Z,75.42
2022-10-25T07:08:46.332Z,75.30
2022-10-25T07:11:18.784Z,75.35
2022-10-25T07:13:46.607Z,75.43
2022-10-25T07:16:16.623Z,75.47
2022-10-25T07:18:44.812Z,75.42
2022-10-25T07:21:15.143Z,75.44
2022-10-25T07:23:42.982Z,75.33
2022-10-25T07:26:18.287Z,75.33
2022-10-25T07:28:47.638Z,75.39
2022-10-25T07:31:17.537Z,75.36
2022-10-25T07:33:44.534Z,75.36
2022-10-25T07:36:12.103Z,75.43
2022-10-25T07:38:39.672Z,75.38
2022-10-25T07:41:07.411Z,75.42
2022-10-25T07:43:35.134Z,75.46
2022-10-25T07:46:02.634Z,75.49
2022-10-25T07:48:29.949Z,75.41
2022-10-25T07:50:56.980Z,75.37
2022-10-25T07:53:24.164Z,75.37
2022-10-25T07:55:52.707Z,75.47
2022-10-25T07:58:19.798Z,75.41
2022-10-25T08:00:47.461Z,75.52
2022-10-25T08:03:17.012Z,75.28
2022-10-25T08:05:45.984Z,75.38
2022-10-25T08:08:14.095Z,75.51
2022-10-25T08:10:44.523Z,75.36
2022-10-25T08:13:11.790Z,75.44
2022-10-25T08:15:40.951Z,75.41
2022-10-25T08:18:09.707Z,75.45
2022-10-25T08:21:00.670Z,75.50
2022-10-25T08:23:25.393Z,75.56
2022-10-25T08:25:52.757Z,75.58
2022-10-25T08:28:20.457Z,75.40
2022-10-25T08:30:47.511Z,75.41
2022-10-25T08:33:14.533Z,75.49
2022-10-25T08:35:41.597Z,75.42
2022-10-25T08:38:08.628Z,75.33
2022-10-25T08:41:10.301Z,75.52
2022-10-25T08:46:38.216Z,75.64
2022-10-25T08:49:51.795Z,75.43
2022-10-25T08:52:23.864Z,75.58
2022-10-25T08:54:51.028Z,75.61
2022-10-25T08:57:22.281Z,75.47
2022-10-25T08:59:53.423Z,75.39
2022-10-25T09:02:37.022Z,75.48
2022-10-25T09:05:04.812Z,75.58
2022-10-25T09:07:46.230Z,75.69
2022-10-25T09:10:33.617Z,75.58
2022-10-25T09:13:10.871Z,75.64
2022-10-25T09:15:43.126Z,75.59
2022-10-25T09:18:19.419Z,75.67
2022-10-25T09:20:51.052Z,75.58
2022-10-25T09:23:29.114Z,75.52
2022-10-25T09:26:04.233Z,75.58
2022-10-25T09:28:49.515Z,75.49
2022-10-25T09:31:22.325Z,75.45
2022-10-25T09:33:56.167Z,75.52
2022-10-25T09:36:27.858Z,75.37
2022-10-25T09:39:00.178Z,75.46
2022-10-25T09:41:41.313Z,75.63
2022-10-25T09:44:21.706Z,75.60
2022-10-25T09:46:54.480Z,75.63
2022-10-25T09:49:37.593Z,75.44
2022-10-25T09:52:04.832Z,75.50
2022-10-25T09:54:40.054Z,75.59
2022-10-25T09:57:07.171Z,75.44
2022-10-25T09:59:34.592Z,75.44
2022-10-25T10:02:01.818Z,75.59
2022-10-25T10:04:36.565Z,75.46
2022-10-25T10:07:33.905Z,75.50
2022-10-25T10:10:04.855Z,75.48
2022-10-25T10:12:43.917Z,75.46
2022-10-25T10:15:20.875Z,75.45
2022-10-25T10:17:48.133Z,75.53
2022-10-25T10:20:18.678Z,75.67
2022-10-25T10:22:54.409Z,75.41
2022-10-25T10:25:25.802Z,75.38
2022-10-25T10:27:56.897Z,75.50
2022-10-25T10:30:30.715Z,75.52
2022-10-25T10:33:00.995Z,75.52
2022-10-25T10:35:31.070Z,75.45
2022-10-25T10:38:23.334Z,75.48
2022-10-25T10:40:52.639Z,75.61
2022-10-25T10:43:37.793Z,75.55
2022-10-25T10:46:10.090Z,75.47
2022-10-25T10:48:43.881Z,75.47
2022-10-25T10:51:47.296Z,75.53
2022-10-25T10:54:34.611Z,75.59
2022-10-25T10:57:04.774Z,75.59
2022-10-25T10:59:45.686Z,75.39
2022-10-25T11:02:18.745Z,75.49
2022-10-25T11:04:53.853Z,75.65
2022-10-25T11:07:31.252Z,75.68
2022-10-25T11:10:20.075Z,75.61
2022-10-25T11:13:05.610Z,75.49
2022-10-25T11:15:39.218Z,75.62
2022-10-25T11:18:09.385Z,75.82
2022-10-25T11:20:48.060Z,75.67
2022-10-25T11:23:42.822Z,75.67
2022-10-25T11:26:32.839Z,75.58
2022-10-25T11:29:16.129Z,75.51
2022-10-25T11:31:43.191Z,75.61
2022-10-25T11:34:38.038Z,75.45
2022-10-25T11:37:24.166Z,75.36
2022-10-25T11:40:08.336Z,75.42
2022-10-25T11:43:15.146Z,75.39
2022-10-25T11:45:45.050Z,75.35
2022-10-25T11:48:31.149Z,75.39
2022-10-25T11:51:31.607Z,75.36
2022-10-25T11:54:16.804Z,75.25
2022-10-25T11:57:10.017Z,75.39
2022-10-25T11:59:46.699Z,75.37
2022-10-25T12:02:54.060Z,75.44
2022-10-25T12:05:51.353Z,75.49
2022-10-25T12:08:50.602Z,75.49
2022-10-25T12:11:26.958Z,75.40
2022-10-25T12:13:58.839Z,75.22
2022-10-25T12:16:29.482Z,75.32
2022-10-25T12:19:23.147Z,75.36
2022-10-25T12:22:01.817Z,75.25
2022-10-25T12:24:37.876Z,75.19
2022-10-25T12:27:05.752Z,75.34
2022-10-25T12:29:40.491Z,75.33
2022-10-25T12:32:43.579Z,75.13
2022-10-25T12:35:32.207Z,75.25
2022-10-25T12:38:05.290Z,75.34
2022-10-25T12:40:39.013Z,75.25
2022-10-25T12:43:31.362Z,75.45
2022-10-25T12:46:44.739Z,75.40
2022-10-25T12:49:18.381Z,75.46
2022-10-25T12:51:59.243Z,75.28
2022-10-25T12:54:32.284Z,75.28
2022-10-25T12:57:24.473Z,75.22
2022-10-25T13:00:14.378Z,75.15
2022-10-25T13:03:35.498Z,75.14
2022-10-25T13:06:11.126Z,75.06
2022-10-25T13:08:40.584Z,75.22
2022-10-25T13:11:09.411Z,75.21
2022-10-25T13:13:41.439Z,75.14
2022-10-25T13:16:11.047Z,75.14
2022-10-25T13:18:46.024Z,75.03
2022-10-25T13:21:37.568Z,75.01
2022-10-25T13:24:04.814Z,74.87
2022-10-25T13:26:33.669Z,74.84
2022-10-25T13:29:04.392Z,74.93
2022-10-25T13:31:34.544Z,74.86
2022-10-25T13:34:14.529Z,74.85
2022-10-25T13:36:52.950Z,74.82
2022-10-25T13:39:35.375Z,74.85
2022-10-25T13:42:33.095Z,74.80
2022-10-25T13:45:03.257Z,74.93
2022-10-25T13:47:41.959Z,74.77
2022-10-25T13:50:26.746Z,74.73
2022-10-25T13:53:04.768Z,74.87
2022-10-25T13:55:37.799Z,74.88
2022-10-25T13:58:32.039Z,74.93
2022-10-25T14:01:18.288Z,74.98
2022-10-25T14:04:20.411Z,74.78
2022-10-25T14:06:47.683Z,74.94
2022-10-25T14:09:39.599Z,74.71
2022-10-25T14:12:20.242Z,74.90
2022-10-25T14:14:47.555Z,74.85
2022-10-25T14:17:24.761Z,74.91
2022-10-25T14:19:55.404Z,74.96
2022-10-25T14:22:39.928Z,74.89
2022-10-25T14:25:20.933Z,74.89
2022-10-25T14:27:48.072Z,75.18
2022-10-25T14:30:26.237Z,75.06
2022-10-25T14:32:56.166Z,75.08
2022-10-25T14:35:33.163Z,74.98
2022-10-25T14:38:01.435Z,75.10
2022-10-25T14:40:30.992Z,75.07
2022-10-25T14:43:36.740Z,74.94
2022-10-25T14:46:07.054Z,74.93
2022-10-25T14:48:34.164Z,75.19
2022-10-25T14:51:07.805Z,75.18
2022-10-25T14:53:38.524Z,75.21
2022-10-25T14:56:06.788Z,75.05
2022-10-25T14:58:42.748Z,74.97
2022-10-25T15:01:12.551Z,74.92
2022-10-25T15:03:45.314Z,75.04
2022-10-25T15:06:14.167Z,74.95
2022-10-25T15:08:42.512Z,74.99
2022-10-25T15:11:16.370Z,75.05
2022-10-25T15:13:49.666Z,75.03
2022-10-25T15:16:28.223Z,75.06
2022-10-25T15:19:18.337Z,75.10
2022-10-25T15:21:49.360Z,74.94
2022-10-25T15:24:22.645Z,74.92
2022-10-25T15:26:58.490Z,74.92
2022-10-25T15:29:40.992Z,75.04
2022-10-25T15:32:27.751Z,74.90
2022-10-25T15:34:57.297Z,74.91
2022-10-25T15:37:25.772Z,75.10
2022-10-25T15:39:54.791Z,74.84
2022-10-25T15:42:25.608Z,74.96
2022-10-25T15:44:52.978Z,74.70
2022-10-25T15:47:23.085Z,74.99
2022-10-25T15:49:53.200Z,74.81
2022-10-25T15:52:21.244Z,74.84
2022-10-25T15:54:49.414Z,74.95
2022-10-25T15:57:17.291Z,75.00
2022-10-25T15:59:44.682Z,74.97
2022-10-25T16:02:19.583Z,75.02
2022-10-25T16:04:47.422Z,74.94
2022-10-25T16:07:15.544Z,74.97
2022-10-25T16:09:42.661Z,74.92
2022-10-25T16:12:18.817Z,74.69
2022-10-25T16:14:46.472Z,74.81
2022-10-25T16:17:14.701Z,75.01
2022-10-25T16:19:41.928Z,75.13
2022-10-25T16:22:08.978Z,75.01
2022-10-25T16:24:36.101Z,75.03
2022-10-25T16:27:03.231Z,75.08
2022-10-25T16:29:30.734Z,74.91
2022-10-25T16:31:57.782Z,74.98
2022-10-25T16:34:24.898Z,74.78
2022-10-25T16:36:52.876Z,74.94
2022-10-25T16:39:19.997Z,75.01
2022-10-25T16:41:47.936Z,74.94
2022-10-25T16:44:19.478Z,75.00
2022-10-25T16:46:46.688Z,75.05
2022-10-25T16:49:13.994Z,74.93
2022-10-25T16:51:41.724Z,74.95
2022-10-25T16:54:10.869Z,74.95
2022-10-25T16:56:38.370Z,74.97
2022-10-25T16:59:05.501Z,75.07
2022-10-25T17:01:35.154Z,74.94
2022-10-25T17:04:04.468Z,74.97
2022-10-25T17:06:46.960Z,74.90
2022-10-25T17:09:14.132Z,75.19
2022-10-25T17:11:41.309Z,74.97
2022-10-25T17:14:12.605Z,75.02
2022-10-25T17:16:40.981Z,75.17
2022-10-25T17:19:09.849Z,75.01
2022-10-25T17:21:37.241Z,74.95
2022-10-25T17:24:06.653Z,74.98
2022-10-25T17:26:33.731Z,75.04
2022-10-25T17:29:01.229Z,75.15
2022-10-25T17:31:28.844Z,75.06
2022-10-25T17:33:56.912Z,74.95
2022-10-25T17:36:23.995Z,75.03
2022-10-25T17:38:51.265Z,75.04
2022-10-25T17:41:18.570Z,75.08
2022-10-25T17:43:45.712Z,75.05
2022-10-25T17:46:23.256Z,75.00
2022-10-25T17:48:55.354Z,75.06
2022-10-25T17:51:23.653Z,74.91
2022-10-25T17:53:54.262Z,74.96
2022-10-25T17:56:22.710Z,74.82
2022-10-25T17:58:50.828Z,75.11
2022-10-25T18:01:26.994Z,74.89
2022-10-25T18:03:55.228Z,75.00
2022-10-25T18:06:24.152Z,74.93
2022-10-25T18:08:59.119Z,75.03
2022-10-25T18:11:28.502Z,75.07
2022-10-25T18:13:58.476Z,75.00
2022-10-25T18:16:27.455Z,74.90
2022-10-25T18:19:00.385Z,74.90
2022-10-25T18:21:27.926Z,74.84
2022-10-25T18:23:56.323Z,74.94
2022-10-25T18:26:25.203Z,74.91
2022-10-25T18:28:52.760Z,74.94
2022-10-25T18:31:21.124Z,74.95
2022-10-25T18:33:48.774Z,74.99
2022-10-25T18:36:19.536Z,74.82
2022-10-25T18:38:51.476Z,74.95
2022-10-25T18:41:21.058Z,74.92
2022-10-25T18:43:48.558Z,75.06
2022-10-25T18:46:15.750Z,74.96
2022-10-25T18:48:45.220Z,74.88
2022-10-25T18:51:13.819Z,74.86
2022-10-25T18:53:41.304Z,75.17
2022-10-25T18:56:10.427Z,75.02
2022-10-25T18:58:38.786Z,74.97
2022-10-25T19:01:08.403Z,74.93
2022-10-25T19:03:35.820Z,74.88
2022-10-25T19:06:03.002Z,74.96
2022-10-25T19:08:30.321Z,74.88
2022-10-25T19:10:57.540Z,74.86
2022-10-25T19:13:24.577Z,74.80
2022-10-25T19:15:51.835Z,75.04
2022-10-25T19:18:18.989Z,75.10
2022-10-25T19:20:46.566Z,74.99
2022-10-25T19:23:13.705Z,74.97
2022-10-25T19:25:41.152Z,74.79
2022-10-25T19:28:08.562Z,75.03
2022-10-25T19:30:38.843Z,75.04
2022-10-25T19:33:07.026Z,74.87
2022-10-25T19:35:34.439Z,75.04
2022-10-25T19:38:01.550Z,75.09
2022-10-25T19:40:28.861Z,75.03
2022-10-25T19:42:56.089Z,74.97
2022-10-25T19:45:24.486Z,75.07
2022-10-25T19:47:56.083Z,75.01
2022-10-25T19:50:24.752Z,74.98
2022-10-25T19:52:52.260Z,74.92
2022-10-25T19:55:19.546Z,74.84
2022-10-25T19:57:47.115Z,74.87
2022-10-25T20:00:14.755Z,75.03
2022-10-25T20:02:41.942Z,75.01
2022-10-25T20:07:41.532Z,74.86
2022-10-25T20:10:08.774Z,74.91
2022-10-25T20:12:35.890Z,74.95
2022-10-25T20:15:02.977Z,74.84
2022-10-25T20:17:30.137Z,74.87
2022-10-25T20:19:57.384Z,75.07
2022-10-25T20:22:24.507Z,74.99
2022-10-25T20:24:51.453Z,74.82
2022-10-25T20:27:19.118Z,74.90
2022-10-25T20:29:46.178Z,75.02
2022-10-25T20:32:14.451Z,74.81
2022-10-25T20:34:41.585Z,74.89
2022-10-25T20:37:10.273Z,74.87
2022-10-25T20:39:37.343Z,74.91
2022-10-25T20:42:04.447Z,75.04
2022-10-25T20:44:31.621Z,75.05
2022-10-25T20:46:58.722Z,74.94
2022-10-25T20:49:25.846Z,74.88
2022-10-25T20:51:52.863Z,74.94
2022-10-25T20:54:19.877Z,75.05
2022-10-25T20:56:46.909Z,74.99
2022-10-25T20:59:13.989Z,74.89
2022-10-25T21:01:41.172Z,74.80
2022-10-25T21:04:09.470Z,74.90
2022-10-25T21:06:36.598Z,74.99
2022-10-25T21:09:03.562Z,74.98
2022-10-25T21:11:30.680Z,75.01
2022-10-25T21:13:57.785Z,74.90
2022-10-25T21:16:24.792Z,74.90
2022-10-25T21:18:51.836Z,74.83
2022-10-25T21:21:20.115Z,74.94
2022-10-25T21:23:49.047Z,74.80
2022-10-25T21:26:16.183Z,74.90
2022-10-25T21:28:43.364Z,75.00
2022-10-25T21:31:12.613Z,75.03
2022-10-25T21:33:40.488Z,74.94
2022-10-25T21:36:11.262Z,74.75
2022-10-25T21:38:38.856Z,74.90
2022-10-25T21:41:19.855Z,74.85
2022-10-25T21:43:49.139Z,75.06
2022-10-25T21:46:18.313Z,74.87
2022-10-25T21:48:47.986Z,74.79
2022-10-25T21:51:15.517Z,74.86
2022-10-25T21:53:42.940Z,74.85
2022-10-25T21:56:19.139Z,74.54
2022-10-25T21:58:47.978Z,74.77
2022-10-25T22:01:20.246Z,74.64
2022-10-25T22:03:47.606Z,74.78
2022-10-25T22:06:17.429Z,74.88
2022-10-25T22:08:44.658Z,74.84
2022-10-25T22:11:15.112Z,74.79
2022-10-25T22:13:42.213Z,74.66
2022-10-25T22:16:15.756Z,74.80
2022-10-25T22:18:43.361Z,74.86
2022-10-25T22:21:13.184Z,74.76
2022-10-25T22:23:40.618Z,74.77
2022-10-25T22:26:10.465Z,74.84
2022-10-25T22:28:40.767Z,74.82
2022-10-25T22:31:12.673Z,74.84
2022-10-25T22:33:40.365Z,74.78
2022-10-25T22:36:13.935Z,74.74
2022-10-25T22:38:41.027Z,74.78
2022-10-25T22:41:13.880Z,74.67
2022-10-25T22:43:41.144Z,74.81
2022-10-25T22:46:14.627Z,75.02
2022-10-25T22:48:44.093Z,74.96
2022-10-25T22:51:12.309Z,74.95
2022-10-25T22:53:40.664Z,74.77
2022-10-25T22:56:15.607Z,74.74
2022-10-25T22:58:48.529Z,74.82
2022-10-25T23:01:18.973Z,74.85
2022-10-25T23:03:54.543Z,74.84
2022-10-25T23:06:25.365Z,74.94
2022-10-25T23:08:54.075Z,74.76
2022-10-25T23:11:26.701Z,74.87
2022-10-25T23:13:54.127Z,74.86
2022-10-25T23:16:21.349Z,74.70
2022-10-25T23:18:48.730Z,75.02
2022-10-25T23:21:23.317Z,74.69
2022-10-25T23:23:51.847Z,74.82
2022-10-25T23:26:22.152Z,74.77
2022-10-25T23:28:49.242Z,74.73
2022-10-25T23:31:16.860Z,74.74
2022-10-25T23:33:44.709Z,74.83
2022-10-25T23:36:12.825Z,74.66
2022-10-25T23:38:39.846Z,74.75
2022-10-25T23:41:06.953Z,74.61
2022-10-25T23:43:34.662Z,74.80
2022-10-25T23:46:02.145Z,74.62
2022-10-25T23:48:29.242Z,74.66
2022-10-25T23:50:57.505Z,74.68
2022-10-25T23:53:24.846Z,74.82
2022-10-25T23:55:52.496Z,75.00
2022-10-25T23:58:19.802Z,74.97
